Craig, AK (99921)

7:55 PM AKDT on June 29, 2015 (GMT -0800)
Hydaburg | | Change Station
CLOSE
Current Station
Airport
Location: Hydaburg,
Elevation: 0 ft
Nearby Weather Stations

Elev 0 ft 55.21 °N, 132.83 °W | Updated 19 minutes ago

Overcast
Overcast
59 °F
Feels Like 59 °F
N
0
Wind Variable Wind from North

Today
High -- | Low -- °F
--% Chance of Precip.
Yesterday
High -- | Low -- °F
Precip. -- in
4:13 AM 9:38 PM
Waxing Gibbous, 95% visible
Pressure 30.16 in
Visibility 10.0 miles
Clouds Scattered Clouds 2200 ft
Overcast 3400 ft
Dew Point 52 °F
Humidity 77%
Rainfall 0.29 in
Snow Depth Not available.
UV 0 out of 12
Pollen Not available.
Air Quality Not available.
Flu Activity Sporadic
METAR PAHY 300336Z AUTO 00000KT 10SM SCT022 OVC034 15/11 A3016 RMK AO1

More Conditions Fewer Conditions

Pressure 30.16 in
Visibility 10.0 miles
Clouds Scattered Clouds 2200 ft
Overcast 3400 ft
Dew Point 52 °F
Humidity 77%
Rainfall 0.29 in
Snow Depth Not available.
UV 0 out of 12
Pollen Not available.
Air Quality Not available.
Flu Activity Sporadic
METAR PAHY 300336Z AUTO 00000KT 10SM SCT022 OVC034 15/11 A3016 RMK AO1

More Conditions Fewer Conditions

10-Day Weather Forecast

×

Almanac

Astronomy

Jun. 29, 2015 Rise Set
Actual Time
Civil Twilight
Nautical Twilight
Astronomical Twilight
Moon
Length of Visible Light
Length of Day
Tomorrow will be .
, % of the Moon is Illuminated

Today's Extremes

State Highs State Lows

Community

WunderPhotos

Upload Photos

1,833,956 photos uploaded!

WunderBlogs® & News

Nearby

Air Quality

  Air Quality AQ Index Pollutant
Not available.

Snow Depth

Station Depth Elevation

Earthquake Activity

City Distance Mag. Time & Date
Minimum magnitude displayed is 2.5.

Coastal Water Temperatures

Place Temperature

Stations

Nearby Weather Stations

Station Location Temp. Windchill Dew Point Humidity Wind Precip. Elev Updated Type